Time;durP1;ratioP1;P1;durP2;ratioP2;P2;SDS_P1;SDS_P2;PMS_P1;PMS_P2;Temp;Humidity;BMP_temperature;BMP_pressure;BME280_temperature;BME280_humidity;BME280_pressure;Samples;Min_cycle;Max_cycle;Signal;HPM_P1;HPM_P2
2022/07/19 00:01:28;;;;;;;8.20;4.60;;;;;;;15.39;65.48;98544.52;106808;1274;22877;-87
2022/07/19 00:03:56;;;;;;;6.30;4.40;;;;;;;15.63;67.08;98542.11;106773;1274;22708;-88
2022/07/19 00:06:24;;;;;;;7.50;4.30;;;;;;;16.13;65.55;98539.99;106810;1274;23057;-87
2022/07/19 00:08:53;;;;;;;7.20;4.70;;;;;;;16.22;64.31;98541.49;106514;1274;24311;-88
2022/07/19 00:11:46;;;;;;;6.70;4.10;;;;;;;16.08;64.23;98545.05;106581;1273;24610;-89
2022/07/19 00:14:15;;;;;;;6.80;4.00;;;;;;;15.87;64.47;98545.50;106636;1274;24323;-90
2022/07/19 00:16:43;;;;;;;8.20;4.40;;;;;;;15.85;64.65;98543.62;106698;1272;25634;-89
2022/07/19 00:19:12;;;;;;;6.70;4.40;;;;;;;15.73;64.84;98536.23;106501;1274;23137;-89
2022/07/19 00:21:40;;;;;;;7.30;4.90;;;;;;;15.72;65.04;98543.77;106536;1274;24431;-88
2022/07/19 00:24:08;;;;;;;8.20;5.30;;;;;;;15.77;64.86;98543.58;106518;1272;23194;-88
2022/07/19 00:26:36;;;;;;;9.10;4.90;;;;;;;15.73;65.26;98539.73;106512;1274;23398;-87
2022/07/19 00:29:04;;;;;;;8.60;5.10;;;;;;;15.53;65.31;98539.45;106499;1274;22671;-90
2022/07/19 00:31:32;;;;;;;7.60;4.50;;;;;;;15.34;65.50;98540.32;106559;1274;23275;-88
2022/07/19 00:34:00;;;;;;;7.10;4.50;;;;;;;15.31;66.20;98534.92;106566;1274;22691;-90
2022/07/19 00:36:29;;;;;;;6.70;4.10;;;;;;;15.66;66.36;98537.11;106391;1274;22565;-89
2022/07/19 00:38:57;;;;;;;8.80;4.80;;;;;;;15.91;65.31;98540.70;106484;1274;22589;-91
2022/07/19 00:41:25;;;;;;;11.30;4.70;;;;;;;15.92;65.74;98542.08;106412;1274;22688;-90
2022/07/19 00:44:53;;;;;;;7.40;4.70;;;;;;;16.37;66.59;98543.02;106490;1274;23934;-90
2022/07/19 00:48:42;;;;;;;5.50;4.00;;;;;;;16.50;64.80;98546.39;106123;1278;23972;-89
2022/07/19 00:51:15;;;;;;;6.30;4.30;;;;;;;16.70;65.69;98540.51;105970;1281;22769;-88
2022/07/19 00:53:44;;;;;;;7.50;4.00;;;;;;;17.23;64.52;98541.02;106007;1281;22664;-89
2022/07/19 00:56:13;;;;;;;8.00;4.20;;;;;;;17.60;63.52;98536.19;106861;1281;22630;-89
2022/07/19 01:03:20;;;;;;;9.60;4.50;;;;;;;16.81;63.48;98535.30;105843;1281;22661;-89
2022/07/19 01:05:48;;;;;;;9.20;4.20;;;;;;;16.74;64.27;98541.62;105797;1281;24077;-89
2022/07/19 01:08:42;;;;;;;6.70;4.40;;;;;;;16.85;63.87;98540.43;105672;1281;24525;-88
2022/07/19 01:11:10;;;;;;;6.60;4.40;;;;;;;16.87;63.71;98539.53;105800;1281;25547;-89
2022/07/19 01:13:38;;;;;;;6.30;4.40;;;;;;;16.80;63.62;98539.51;105815;1281;22713;-89
2022/07/19 01:16:09;;;;;;;7.00;4.50;;;;;;;16.66;63.90;98539.98;105731;1281;25386;-89
2022/07/19 01:18:37;;;;;;;6.00;4.30;;;;;;;16.64;63.97;98539.39;105792;1279;22694;-90
2022/07/19 01:21:05;;;;;;;8.20;4.20;;;;;;;16.61;64.03;98539.87;105834;1279;26626;-89
2022/07/19 01:23:33;;;;;;;7.60;4.70;;;;;;;16.54;63.60;98541.89;106163;1274;22706;-90
2022/07/19 01:26:01;;;;;;;8.00;4.80;;;;;;;16.23;63.89;98539.19;106395;1274;22612;-89
2022/07/19 01:28:29;;;;;;;8.50;4.00;;;;;;;15.97;64.94;98541.61;106227;1274;24101;-88
2022/07/19 01:30:57;;;;;;;7.20;3.90;;;;;;;16.15;65.91;98539.71;106372;1274;24215;-86
2022/07/19 01:33:25;;;;;;;5.40;3.80;;;;;;;16.59;66.55;98534.39;106236;1274;22875;-89
2022/07/19 01:35:53;;;;;;;7.20;4.50;;;;;;;17.01;65.43;98535.93;106327;1274;24280;-88
2022/07/19 01:38:21;;;;;;;8.10;4.80;;;;;;;17.25;64.51;98535.59;106143;1274;22685;-89
2022/07/19 01:40:49;;;;;;;7.90;5.00;;;;;;;17.11;64.16;98534.55;106372;1274;25388;-88
2022/07/19 01:43:17;;;;;;;7.90;4.70;;;;;;;16.87;64.37;98534.85;106139;1274;22532;-89
2022/07/19 01:45:45;;;;;;;7.30;4.60;;;;;;;16.67;64.53;98528.05;106143;1274;22694;-89
2022/07/19 01:48:13;;;;;;;8.30;4.70;;;;;;;16.56;65.03;98526.85;106288;1274;22904;-89
2022/07/19 01:50:42;;;;;;;10.20;4.60;;;;;;;16.78;66.20;98525.67;106308;1274;25641;-88
2022/07/19 01:53:09;;;;;;;7.10;4.30;;;;;;;17.19;65.73;98527.22;106333;1274;22618;-88
2022/07/19 01:55:38;;;;;;;7.20;4.10;;;;;;;17.38;64.50;98523.89;106247;1274;247831;-88
2022/07/19 01:58:06;;;;;;;8.30;4.20;;;;;;;17.24;64.37;98527.06;106117;1274;25356;-87
2022/07/19 02:00:34;;;;;;;5.60;3.90;;;;;;;17.18;64.49;98527.30;106642;1274;22608;-89
2022/07/19 02:03:02;;;;;;;8.20;4.60;;;;;;;17.16;64.44;98530.69;107513;1274;22484;-88
2022/07/19 02:05:30;;;;;;;8.50;5.00;;;;;;;17.04;64.69;98527.02;108212;1274;22621;-88
2022/07/19 02:08:00;;;;;;;6.30;4.70;;;;;;;17.14;65.44;98528.69;107212;1274;22683;-89
2022/07/19 02:10:29;;;;;;;7.90;4.60;;;;;;;17.46;65.27;98529.59;106880;1274;22553;-89
2022/07/19 02:12:57;;;;;;;6.70;4.30;;;;;;;17.76;64.58;98526.64;106335;1274;24261;-88
2022/07/19 02:15:25;;;;;;;8.40;4.50;;;;;;;18.04;63.75;98524.34;106424;1274;22699;-88
2022/07/19 02:17:53;;;;;;;8.80;5.20;;;;;;;18.31;63.47;98524.64;106448;1274;25308;-87
2022/07/19 02:20:22;;;;;;;6.80;5.20;;;;;;;18.14;63.25;98530.27;106360;1274;25465;-89
2022/07/19 02:22:50;;;;;;;7.80;4.90;;;;;;;17.70;63.39;98529.34;106457;1274;24275;-90
2022/07/19 02:25:19;;;;;;;6.40;4.70;;;;;;;17.32;63.83;98530.23;106372;1274;25438;-89
2022/07/19 02:27:47;;;;;;;7.40;4.80;;;;;;;16.92;64.16;98530.40;106291;1274;24129;-89
2022/07/19 02:30:16;;;;;;;7.90;4.20;;;;;;;16.58;64.71;98534.27;106164;1274;22550;-87
2022/07/19 02:32:45;;;;;;;8.00;4.30;;;;;;;16.30;65.39;98536.73;106320;1274;25353;-88
2022/07/19 02:35:13;;;;;;;7.80;4.30;;;;;;;16.22;65.74;98536.93;106115;1274;22695;-90
2022/07/19 02:37:42;;;;;;;7.90;5.20;;;;;;;16.13;65.88;98541.89;106312;1274;22661;-88
2022/07/19 02:40:11;;;;;;;7.60;4.70;;;;;;;16.18;66.51;98541.15;106352;1274;25532;-88
2022/07/19 02:42:39;;;;;;;7.50;4.50;;;;;;;16.37;66.50;98539.34;106439;1274;24195;-90
2022/07/19 02:45:07;;;;;;;9.00;4.80;;;;;;;16.58;66.04;98538.19;106223;1274;22698;-88
2022/07/19 02:47:35;;;;;;;9.60;5.50;;;;;;;16.51;65.76;98542.00;106281;1274;22575;-88
2022/07/19 02:50:04;;;;;;;7.70;5.40;;;;;;;16.33;66.15;98542.42;106247;1274;25337;-88
2022/07/19 02:52:32;;;;;;;7.60;5.20;;;;;;;16.09;66.59;98543.64;106224;1274;22556;-89
2022/07/19 02:55:00;;;;;;;8.40;5.30;;;;;;;15.96;66.74;98543.82;106244;1275;25462;-89
2022/07/19 02:57:28;;;;;;;9.80;5.80;;;;;;;16.04;66.79;98540.37;106335;1275;25785;-88
2022/07/19 03:04:42;;;;;;;6.40;4.50;;;;;;;16.41;67.67;98536.92;106302;1274;22557;-91
2022/07/19 03:07:10;;;;;;;7.30;5.10;;;;;;;16.84;68.07;98534.81;106262;1274;22548;-90
2022/07/19 03:09:39;;;;;;;9.00;4.90;;;;;;;17.04;66.24;98535.02;106153;1274;22695;-91
2022/07/19 03:12:07;;;;;;;6.90;5.70;;;;;;;16.79;66.30;98540.27;106163;1274;25214;-88
2022/07/19 03:14:35;;;;;;;8.10;5.20;;;;;;;16.55;66.39;98541.76;106133;1274;24290;-88
2022/07/19 03:17:03;;;;;;;7.70;5.10;;;;;;;16.41;66.62;98544.57;106294;1274;22581;-88
2022/07/19 03:19:31;;;;;;;10.00;5.30;;;;;;;16.33;66.62;98541.20;106270;1274;22688;-88
2022/07/19 03:21:59;;;;;;;8.60;5.80;;;;;;;16.28;66.82;98543.79;106307;1274;22733;-88
2022/07/19 03:24:27;;;;;;;6.20;4.80;;;;;;;16.28;66.78;98550.23;106269;1274;22572;-88
2022/07/19 03:26:54;;;;;;;6.80;5.20;;;;;;;16.28;66.76;98555.89;106284;1274;24225;-89
2022/07/19 03:29:23;;;;;;;10.40;5.90;;;;;;;16.23;67.25;98558.92;106345;1273;25392;-89
2022/07/19 03:31:57;;;;;;;8.40;6.00;;;;;;;16.49;68.32;98554.32;106440;1273;25420;-88
2022/07/19 03:34:28;;;;;;;10.00;5.40;;;;;;;16.63;67.53;98550.52;106367;1273;22528;-88
2022/07/19 03:36:56;;;;;;;8.70;5.40;;;;;;;16.89;67.46;98553.89;106361;1273;22690;-87
2022/07/19 03:39:24;;;;;;;7.20;4.50;;;;;;;16.96;66.48;98555.08;106209;1274;22579;-88
2022/07/19 03:41:52;;;;;;;6.60;4.80;;;;;;;17.04;66.71;98555.63;106377;1273;25468;-87
2022/07/19 03:44:27;;;;;;;8.50;5.60;;;;;;;17.11;66.16;98558.48;106317;1273;22763;-89
2022/07/19 03:46:55;;;;;;;8.10;4.80;;;;;;;17.06;66.30;98564.11;106325;1273;22685;-87
2022/07/19 03:49:23;;;;;;;9.70;5.60;;;;;;;17.25;66.40;98562.95;106156;1273;22581;-89
2022/07/19 03:51:51;;;;;;;10.20;5.50;;;;;;;17.18;65.85;98571.39;106289;1273;22539;-90
2022/07/19 03:54:19;;;;;;;7.00;4.40;;;;;;;17.07;66.00;98566.80;106371;1273;22562;-87
2022/07/19 03:56:47;;;;;;;6.60;4.30;;;;;;;17.10;66.19;98570.98;106375;1274;22528;-88
2022/07/19 03:59:16;;;;;;;8.70;4.60;;;;;;;17.22;66.07;98571.71;106328;1274;22692;-88
2022/07/19 04:01:44;;;;;;;7.00;4.70;;;;;;;17.31;65.98;98574.56;106321;1274;22714;-88
2022/07/19 04:04:12;;;;;;;7.50;5.50;;;;;;;17.48;66.38;98572.46;106181;1274;25416;-89
2022/07/19 04:06:40;;;;;;;7.90;5.20;;;;;;;17.79;65.61;98572.55;106353;1274;24392;-89
2022/07/19 04:09:08;;;;;;;7.70;5.70;;;;;;;18.01;65.09;98574.71;106307;1274;22721;-89
2022/07/19 04:11:36;;;;;;;7.40;5.30;;;;;;;18.00;64.93;98574.91;106318;1274;23440;-89
2022/07/19 04:14:04;;;;;;;10.70;5.70;;;;;;;17.88;64.89;98576.48;106368;1274;23439;-88
2022/07/19 04:16:32;;;;;;;7.30;5.10;;;;;;;17.69;64.97;98573.30;106340;1274;24963;-89
2022/07/19 04:19:00;;;;;;;7.40;5.10;;;;;;;17.43;64.91;98578.41;106447;1274;25350;-90
2022/07/19 04:21:28;;;;;;;27.20;6.30;;;;;;;17.16;65.05;98584.38;106451;1274;22701;-89
2022/07/19 04:23:56;;;;;;;15.30;7.50;;;;;;;16.82;65.50;98590.26;106458;1274;25310;-89
2022/07/19 04:26:24;;;;;;;10.70;6.20;;;;;;;16.63;66.39;98595.75;106328;1274;23783;-89
2022/07/19 04:28:52;;;;;;;8.50;5.70;;;;;;;16.86;68.57;98592.67;106441;1274;22745;-88
2022/07/19 04:31:20;;;;;;;11.20;5.40;;;;;;;17.42;67.53;98588.33;106421;1274;24414;-89
2022/07/19 04:33:49;;;;;;;13.80;5.40;;;;;;;17.86;66.37;98593.91;106470;1274;24115;-89
2022/07/19 04:36:17;;;;;;;7.40;4.80;;;;;;;18.26;65.05;98589.70;106362;1274;25442;-89
2022/07/19 04:38:45;;;;;;;9.30;4.50;;;;;;;18.70;63.42;98587.39;106298;1274;22665;-89
2022/07/19 04:41:13;;;;;;;9.20;5.60;;;;;;;19.09;62.17;98587.48;106343;1274;22710;-88
2022/07/19 04:43:41;;;;;;;7.00;5.00;;;;;;;19.37;61.29;98584.81;106256;1274;22561;-89
2022/07/19 04:46:09;;;;;;;9.60;4.90;;;;;;;19.54;61.25;98589.29;106127;1274;22875;-90
2022/07/19 04:48:37;;;;;;;6.80;4.30;;;;;;;19.71;60.35;98585.30;106177;1274;22701;-89
2022/07/19 04:51:05;;;;;;;7.60;4.80;;;;;;;19.90;59.56;98584.21;106223;1274;25630;-89
2022/07/19 04:53:34;;;;;;;7.00;4.40;;;;;;;20.08;59.13;98582.73;106386;1273;24088;-89
2022/07/19 04:56:06;;;;;;;6.20;4.40;;;;;;;20.28;58.49;98578.15;106419;1274;22856;-89
2022/07/19 04:58:34;;;;;;;9.10;5.30;;;;;;;20.40;59.27;98579.97;106327;1274;25403;-90
2022/07/19 05:01:03;;;;;;;7.20;5.00;;;;;;;20.40;59.87;98576.39;106394;1274;23738;-89
2022/07/19 05:03:31;;;;;;;9.30;4.50;;;;;;;20.43;58.83;98574.28;106581;1274;22858;-90
2022/07/19 05:05:59;;;;;;;6.50;4.70;;;;;;;20.56;58.51;98569.27;106499;1272;22525;-89
2022/07/19 05:08:27;;;;;;;6.60;4.90;;;;;;;20.66;58.48;98569.86;106322;1274;24297;-90
2022/07/19 05:10:56;;;;;;;7.60;5.00;;;;;;;20.69;58.28;98567.38;106352;1274;22691;-89
2022/07/19 05:13:24;;;;;;;10.70;6.00;;;;;;;20.64;58.51;98565.13;106490;1273;22865;-89
2022/07/19 05:15:53;;;;;;;11.30;6.40;;;;;;;20.57;59.07;98566.00;106333;1274;24262;-89
2022/07/19 05:18:21;;;;;;;9.60;6.60;;;;;;;20.39;59.42;98571.11;106357;1274;22600;-88
2022/07/19 05:20:49;;;;;;;8.30;6.10;;;;;;;20.22;59.53;98568.75;106352;1272;22556;-90
2022/07/19 05:23:17;;;;;;;8.70;5.70;;;;;;;20.15;60.08;98569.94;106336;1274;22790;-90
2022/07/19 05:30:31;;;;;;;9.90;7.70;;;;;;;20.77;58.00;98576.77;106400;1274;24185;-88
2022/07/19 05:32:59;;;;;;;10.10;7.80;;;;;;;20.90;58.51;98578.83;106455;1273;24408;-89
2022/07/19 05:35:27;;;;;;;11.60;7.90;;;;;;;20.87;58.44;98578.58;106475;1272;25227;-90
2022/07/19 05:38:23;;;;;;;8.70;5.60;;;;;;;20.90;58.34;98579.58;106385;1274;22705;-88
2022/07/19 05:40:51;;;;;;;11.90;8.60;;;;;;;21.03;57.38;98575.23;106578;1274;22697;-88
2022/07/19 05:43:19;;;;;;;15.30;10.30;;;;;;;21.15;57.50;98574.00;106427;1274;25357;-88
2022/07/19 05:45:47;;;;;;;15.00;10.10;;;;;;;21.10;57.57;98572.86;106553;1273;22698;-88
2022/07/19 05:48:15;;;;;;;22.50;11.10;;;;;;;20.92;57.67;98573.08;106481;1274;22707;-89
2022/07/19 05:50:43;;;;;;;27.50;11.80;;;;;;;20.68;57.59;98576.19;106281;1274;24217;-85
2022/07/19 05:53:11;;;;;;;17.10;10.90;;;;;;;20.53;57.62;98574.18;106546;1274;22555;-88
2022/07/19 05:55:39;;;;;;;22.00;11.00;;;;;;;20.41;57.58;98575.95;106523;1274;23255;-89
2022/07/19 05:58:07;;;;;;;22.20;10.00;;;;;;;20.35;57.47;98577.48;106614;1274;25461;-89
2022/07/19 06:00:35;;;;;;;22.20;9.30;;;;;;;20.30;56.78;98576.40;106538;1274;22638;-89
2022/07/19 06:03:03;;;;;;;13.10;8.20;;;;;;;20.27;56.45;98576.80;106446;1273;22687;-89
2022/07/19 06:05:31;;;;;;;14.10;8.50;;;;;;;20.20;55.31;98573.46;106542;1274;22716;-88
2022/07/19 06:07:59;;;;;;;10.40;6.70;;;;;;;20.19;56.24;98574.39;106343;1274;22557;-89
2022/07/19 06:10:27;;;;;;;9.20;6.30;;;;;;;20.23;55.49;98569.33;106495;1274;22553;-90
2022/07/19 06:12:55;;;;;;;13.70;6.60;;;;;;;20.27;55.38;98568.50;106505;1274;22544;-89
2022/07/19 06:15:23;;;;;;;11.60;6.20;;;;;;;20.28;54.82;98566.25;106583;1274;24300;-88
2022/07/19 06:17:51;;;;;;;10.80;5.90;;;;;;;20.30;54.75;98573.27;106721;1273;25231;-89
2022/07/19 06:20:23;;;;;;;12.00;6.50;;;;;;;20.38;54.46;98570.55;106648;1274;25337;-89
2022/07/19 06:22:51;;;;;;;10.80;6.60;;;;;;;20.45;53.81;98572.62;106570;1271;22696;-89
2022/07/19 06:29:45;;;;;;;15.80;7.50;;;;;;;20.49;53.51;98567.80;108082;1274;22713;-88
2022/07/19 06:32:13;;;;;;;11.40;7.30;;;;;;;20.52;53.49;98568.36;106624;1274;24230;-89
2022/07/19 06:34:41;;;;;;;11.00;7.70;;;;;;;20.56;53.54;98567.79;108595;1274;22579;-88
2022/07/19 06:37:10;;;;;;;11.70;7.00;;;;;;;20.60;53.77;98566.52;109694;1273;22554;-87
2022/07/19 06:39:38;;;;;;;11.90;7.40;;;;;;;20.69;53.74;98564.87;109502;1273;22567;-86
2022/07/19 06:42:06;;;;;;;13.00;7.10;;;;;;;20.76;53.83;98559.35;109583;1273;22610;-87
2022/07/19 06:44:35;;;;;;;15.20;6.80;;;;;;;20.85;53.91;98561.55;109107;1274;22932;-87
2022/07/19 06:47:03;;;;;;;13.70;7.40;;;;;;;20.97;53.80;98567.27;108423;1273;22755;-88
2022/07/19 06:49:31;;;;;;;12.10;7.80;;;;;;;21.06;53.64;98566.17;109679;1274;22597;-87
2022/07/19 06:52:01;;;;;;;12.30;7.10;;;;;;;21.11;53.62;98566.54;109830;1273;23035;-88
2022/07/19 06:54:29;;;;;;;16.30;7.60;;;;;;;21.20;53.66;98563.70;109745;1274;22601;-89
2022/07/19 06:56:57;;;;;;;13.90;7.90;;;;;;;21.26;53.46;98560.72;109810;1272;22579;-88
2022/07/19 06:59:25;;;;;;;11.80;7.60;;;;;;;21.29;53.33;98555.71;109840;1272;22700;-87
2022/07/19 07:01:53;;;;;;;17.20;8.40;;;;;;;21.31;53.56;98555.61;109847;1272;22684;-88
2022/07/19 07:04:21;;;;;;;11.80;7.40;;;;;;;21.35;53.42;98558.15;109721;1272;22654;-87
2022/07/19 07:07:02;;;;;;;14.60;9.30;;;;;;;21.44;53.36;98558.52;109770;1272;22526;-87
2022/07/19 07:09:30;;;;;;;17.00;10.40;;;;;;;21.53;53.18;98561.73;108670;1274;25218;-88
2022/07/19 07:11:59;;;;;;;12.30;7.20;;;;;;;21.60;53.13;98565.13;107678;1274;22600;-88
2022/07/19 07:14:27;;;;;;;11.60;7.30;;;;;;;21.69;52.97;98564.38;107849;1274;22774;-89
2022/07/19 07:16:55;;;;;;;13.70;6.90;;;;;;;21.81;53.04;98562.21;107797;1274;22698;-88
2022/07/19 07:20:03;;;;;;;9.90;6.90;;;;;;;21.92;52.56;98562.80;107449;1274;22590;-87
2022/07/19 07:23:51;;;;;;;11.70;7.30;;;;;;;22.07;52.48;98562.97;107285;1276;22700;-89
2022/07/19 07:27:00;;;;;;;14.80;7.60;;;;;;;22.17;52.68;98557.80;106277;1284;24359;-89
2022/07/19 07:29:28;;;;;;;13.60;7.20;;;;;;;22.34;52.03;98559.49;106981;1284;22558;-90
2022/07/19 07:31:57;;;;;;;12.40;7.50;;;;;;;22.35;51.34;98558.56;105854;1285;22669;-88
2022/07/19 07:34:25;;;;;;;19.60;9.50;;;;;;;22.41;51.92;98556.96;106177;1284;22711;-88
2022/07/19 07:36:53;;;;;;;22.00;7.70;;;;;;;22.54;51.83;98559.59;106039;1284;23137;-87
2022/07/19 07:39:21;;;;;;;11.80;6.20;;;;;;;22.71;51.50;98563.21;106088;1284;22728;-87
2022/07/19 07:46:34;;;;;;;10.20;5.60;;;;;;;23.02;50.92;98570.80;105566;1284;23419;-88
2022/07/19 07:49:02;;;;;;;10.70;6.10;;;;;;;23.20;51.02;98568.69;105681;1284;25417;-87
2022/07/19 07:51:35;;;;;;;10.50;5.50;;;;;;;23.42;51.05;98570.57;105775;1284;24410;-88
2022/07/19 07:54:12;;;;;;;13.20;5.50;;;;;;;23.63;49.91;98560.85;105787;1285;23947;-89
2022/07/19 07:56:41;;;;;;;11.40;5.50;;;;;;;23.88;49.93;98558.80;105987;1284;22569;-88
2022/07/19 07:59:10;;;;;;;15.60;5.60;;;;;;;24.04;48.50;98554.15;105270;1285;22710;-89
2022/07/19 08:01:39;;;;;;;8.90;4.90;;;;;;;24.06;48.54;98550.71;105977;1279;22758;-89
2022/07/19 08:04:07;;;;;;;10.00;5.50;;;;;;;24.17;48.27;98552.91;106406;1274;22558;-88
2022/07/19 08:06:36;;;;;;;13.20;5.30;;;;;;;24.33;47.97;98551.55;106649;1274;25390;-88
2022/07/19 08:09:05;;;;;;;9.10;4.60;;;;;;;24.48;47.83;98551.54;106591;1273;25404;-88
2022/07/19 08:11:34;;;;;;;11.70;5.00;;;;;;;24.63;47.56;98552.16;106670;1274;22771;-90
2022/07/19 08:14:03;;;;;;;14.10;4.30;;;;;;;24.70;47.20;98551.15;106604;1274;23926;-89
2022/07/19 08:16:31;;;;;;;8.30;3.70;;;;;;;24.75;46.50;98550.25;106561;1274;22544;-90
2022/07/19 08:18:59;;;;;;;11.10;5.70;;;;;;;24.77;44.85;98551.31;106684;1274;22866;-91
2022/07/19 08:21:27;;;;;;;9.40;5.00;;;;;;;24.81;44.50;98555.52;106418;1273;24232;-87
2022/07/19 08:23:55;;;;;;;8.20;3.80;;;;;;;24.97;44.18;98558.77;106425;1274;24204;-86
2022/07/19 08:26:23;;;;;;;13.60;3.90;;;;;;;25.04;44.79;98554.48;106305;1274;22575;-84
2022/07/19 08:28:51;;;;;;;14.60;6.20;;;;;;;25.12;43.27;98556.15;106254;1274;22578;-87
2022/07/19 08:31:19;;;;;;;9.00;4.70;;;;;;;25.13;42.58;98559.23;106543;1274;25353;-86
2022/07/19 08:33:47;;;;;;;13.50;5.70;;;;;;;25.14;43.71;98556.52;106455;1274;24228;-84
2022/07/19 08:36:16;;;;;;;11.80;4.80;;;;;;;25.22;43.79;98556.27;106288;1273;25248;-88
2022/07/19 08:38:46;;;;;;;11.70;3.50;;;;;;;25.23;42.76;98555.64;106638;1274;23961;-86
2022/07/19 08:41:15;;;;;;;8.20;4.30;;;;;;;25.19;43.05;98552.69;106578;1274;22532;-86
2022/07/19 08:43:43;;;;;;;9.00;3.90;;;;;;;25.19;42.95;98546.63;106563;1274;23311;-88
2022/07/19 08:46:11;;;;;;;9.40;5.20;;;;;;;25.15;42.51;98549.96;106524;1274;24349;-90
2022/07/19 08:49:11;;;;;;;13.40;5.60;;;;;;;25.13;42.73;98549.63;106433;1274;22551;-88
2022/07/19 08:51:44;;;;;;;8.30;3.40;;;;;;;25.08;42.33;98552.32;106348;1274;23209;-86
2022/07/19 08:54:12;;;;;;;7.80;3.80;;;;;;;25.08;42.79;98552.88;106452;1274;25465;-88
2022/07/19 08:59:27;;;;;;;9.10;3.60;;;;;;;25.36;42.13;98546.61;106541;1274;22747;-85
2022/07/19 09:01:55;;;;;;;9.60;3.90;;;;;;;25.44;42.31;98542.50;106514;1274;24408;-86
2022/07/19 09:04:25;;;;;;;11.00;3.60;;;;;;;25.58;42.53;98538.89;106628;1274;25445;-87
2022/07/19 09:06:56;;;;;;;29.20;17.10;;;;;;;25.72;41.62;98534.11;106577;1274;22690;-84
2022/07/19 09:09:25;;;;;;;16.50;7.00;;;;;;;25.86;41.39;98534.54;106472;1274;24755;-87
2022/07/19 09:11:55;;;;;;;19.80;6.10;;;;;;;25.95;41.52;98538.69;106473;1273;22557;-85
2022/07/19 09:14:26;;;;;;;7.60;3.50;;;;;;;26.04;41.43;98534.96;106672;1274;22638;-84
2022/07/19 09:17:05;;;;;;;9.10;3.40;;;;;;;26.11;40.53;98537.28;106484;1273;22801;-83
2022/07/19 09:19:39;;;;;;;12.70;5.10;;;;;;;26.20;40.67;98539.84;106562;1274;23930;-83
2022/07/19 09:22:14;;;;;;;14.50;6.10;;;;;;;26.35;39.92;98539.37;106698;1273;23380;-83
2022/07/19 09:24:45;;;;;;;7.70;3.80;;;;;;;26.44;39.44;98541.93;106272;1274;25410;-83
2022/07/19 09:27:18;;;;;;;6.20;2.90;;;;;;;26.46;37.67;98535.54;106544;1274;25404;-84
2022/07/19 09:29:53;;;;;;;6.50;2.90;;;;;;;26.53;37.76;98532.98;106612;1274;22539;-84
2022/07/19 09:32:23;;;;;;;7.60;3.40;;;;;;;26.62;37.87;98535.31;106567;1274;22564;-84
2022/07/19 09:34:53;;;;;;;12.90;3.80;;;;;;;26.68;37.50;98532.23;106505;1274;22525;-83
2022/07/19 09:37:27;;;;;;;7.60;3.30;;;;;;;26.72;38.20;98528.94;106383;1274;23267;-84
2022/07/19 09:40:06;;;;;;;6.60;3.00;;;;;;;26.79;38.03;98523.98;106353;1274;22547;-83
2022/07/19 09:42:37;;;;;;;7.60;3.30;;;;;;;26.84;36.59;98524.55;106320;1274;26769;-83
2022/07/19 09:45:09;;;;;;;8.30;3.10;;;;;;;26.88;36.46;98521.79;106571;1274;24528;-83
2022/07/19 09:47:40;;;;;;;7.70;2.80;;;;;;;26.97;37.19;98512.38;106248;1274;22474;-84
2022/07/19 09:50:16;;;;;;;7.70;3.00;;;;;;;27.16;37.14;98515.67;106341;1274;22581;-82
2022/07/19 09:52:50;;;;;;;13.60;4.50;;;;;;;27.17;35.97;98516.88;106609;1274;24402;-83
2022/07/19 09:55:19;;;;;;;8.50;3.80;;;;;;;27.23;35.12;98513.94;106469;1274;22663;-82
2022/07/19 09:57:49;;;;;;;7.10;3.10;;;;;;;27.27;35.72;98512.05;106528;1274;23382;-81
2022/07/19 10:00:20;;;;;;;8.50;3.00;;;;;;;27.37;35.13;98513.23;106532;1273;24398;-87
2022/07/19 10:02:51;;;;;;;7.30;3.80;;;;;;;27.51;35.39;98516.31;106623;1274;22703;-86
2022/07/19 10:05:20;;;;;;;7.70;3.00;;;;;;;27.63;33.98;98518.36;106485;1274;24247;-87
2022/07/19 10:07:49;;;;;;;5.30;3.00;;;;;;;27.68;33.99;98513.12;106622;1272;22672;-86
2022/07/19 10:10:19;;;;;;;5.20;2.60;;;;;;;27.68;33.10;98513.76;106633;1272;22535;-85
2022/07/19 10:12:48;;;;;;;6.70;3.00;;;;;;;27.61;32.38;98511.71;106610;1274;25341;-86
2022/07/19 10:15:18;;;;;;;4.90;3.00;;;;;;;27.63;33.72;98514.71;106589;1274;24409;-85
2022/07/19 10:18:03;;;;;;;5.70;2.80;;;;;;;27.75;33.54;98510.66;106664;1274;22688;-86
2022/07/19 10:20:31;;;;;;;6.20;2.80;;;;;;;27.80;32.78;98507.75;106704;1274;22555;-86
2022/07/19 10:23:00;;;;;;;7.30;3.10;;;;;;;27.68;32.73;98502.05;106679;1274;24992;-85
2022/07/19 10:25:39;;;;;;;9.70;3.20;;;;;;;27.63;32.15;98504.02;106476;1274;22696;-87
2022/07/19 10:28:27;;;;;;;6.70;3.40;;;;;;;27.65;32.22;98504.83;106710;1272;23124;-85
2022/07/19 10:31:35;;;;;;;7.10;3.20;;;;;;;27.64;32.48;98500.88;106665;1274;24275;-85
2022/07/19 10:34:08;;;;;;;4.90;2.70;;;;;;;27.78;32.37;98503.46;106709;1273;23229;-87
2022/07/19 10:36:46;;;;;;;9.10;2.90;;;;;;;27.86;32.85;98498.86;106535;1273;24279;-86
2022/07/19 10:39:29;;;;;;;5.70;3.10;;;;;;;28.07;32.69;98496.27;106687;1274;25187;-87
2022/07/19 10:42:09;;;;;;;11.20;3.10;;;;;;;28.21;32.61;98493.67;106596;1274;22561;-85
2022/07/19 10:45:01;;;;;;;8.10;3.20;;;;;;;28.35;31.77;98493.77;106591;1274;24096;-86
2022/07/19 10:47:34;;;;;;;6.70;3.50;;;;;;;28.41;30.84;98489.41;106609;1274;25393;-86
2022/07/19 10:50:14;;;;;;;6.70;3.10;;;;;;;28.33;31.28;98495.30;106547;1274;24377;-87
2022/07/19 10:52:43;;;;;;;7.80;3.40;;;;;;;28.35;31.11;98494.10;106574;1274;25319;-87
2022/07/19 10:55:17;;;;;;;8.10;3.00;;;;;;;28.40;31.36;98497.82;106469;1274;25873;-87
2022/07/19 10:57:50;;;;;;;7.60;3.10;;;;;;;28.54;31.82;98489.19;106581;1273;25485;-88
2022/07/19 11:00:27;;;;;;;6.30;2.90;;;;;;;28.68;32.18;98487.93;106535;1274;24259;-87
2022/07/19 11:03:20;;;;;;;7.30;3.50;;;;;;;28.80;32.12;98487.77;106565;1272;23351;-86
2022/07/19 11:05:53;;;;;;;9.60;2.80;;;;;;;28.90;32.37;98486.43;106631;1274;22523;-88
2022/07/19 11:08:36;;;;;;;7.90;3.10;;;;;;;29.00;31.93;98490.49;106596;1272;24281;-84
2022/07/19 11:11:10;;;;;;;7.20;3.80;;;;;;;29.05;31.29;98492.45;106641;1274;25403;-86
2022/07/19 11:13:43;;;;;;;7.60;3.20;;;;;;;29.09;31.54;98486.48;106747;1274;24418;-86
2022/07/19 11:16:14;;;;;;;6.60;3.10;;;;;;;29.26;31.78;98483.02;107098;1274;25911;-89
2022/07/19 11:18:43;;;;;;;8.70;3.40;;;;;;;29.45;31.37;98484.52;107725;1264;22579;-86
2022/07/19 11:21:14;;;;;;;5.20;3.00;;;;;;;29.57;31.42;98484.89;106574;1274;22556;-85
2022/07/19 11:23:43;;;;;;;8.40;3.20;;;;;;;29.67;30.30;98478.85;106645;1273;22718;-88
2022/07/19 11:26:15;;;;;;;10.10;3.00;;;;;;;29.64;31.27;98471.98;106595;1273;22554;-86
2022/07/19 11:28:45;;;;;;;5.80;2.90;;;;;;;29.84;31.36;98472.64;106526;1273;22704;-85
2022/07/19 11:31:19;;;;;;;8.70;2.90;;;;;;;29.98;31.29;98466.43;106440;1274;22540;-85
2022/07/19 11:33:49;;;;;;;10.30;3.70;;;;;;;30.14;31.04;98467.35;106542;1273;22694;-85
2022/07/19 11:36:18;;;;;;;6.50;3.40;;;;;;;30.15;30.02;98470.92;106470;1274;22550;-85
2022/07/19 11:38:49;;;;;;;8.90;3.00;;;;;;;30.05;30.06;98464.13;106666;1273;22550;-86
2022/07/19 11:41:19;;;;;;;9.50;2.80;;;;;;;30.08;30.61;98463.52;106393;1274;25585;-87
2022/07/19 11:44:01;;;;;;;11.10;3.20;;;;;;;30.20;30.64;98466.09;106393;1273;24409;-88
2022/07/19 11:46:37;;;;;;;6.00;3.00;;;;;;;30.32;30.29;98463.41;106607;1273;22718;-85
2022/07/19 11:49:08;;;;;;;6.40;2.60;;;;;;;30.41;29.49;98458.06;106566;1274;22609;-87
2022/07/19 11:51:37;;;;;;;21.10;3.60;;;;;;;30.36;30.21;98454.54;106763;1273;24282;-87
2022/07/19 11:54:07;;;;;;;7.10;3.10;;;;;;;30.48;29.86;98454.54;106371;1273;22546;-86
2022/07/19 11:56:35;;;;;;;11.10;3.10;;;;;;;30.48;29.91;98450.81;106672;1273;24374;-86
2022/07/19 11:59:08;;;;;;;9.60;3.10;;;;;;;30.72;30.10;98448.25;106547;1272;22579;-87
2022/07/19 12:01:39;;;;;;;7.40;2.70;;;;;;;30.95;29.36;98450.52;106615;1274;25215;-85
2022/07/19 12:04:10;;;;;;;7.60;3.20;;;;;;;30.90;29.33;98450.42;106366;1275;22559;-86
2022/07/19 12:06:40;;;;;;;9.20;3.20;;;;;;;30.89;29.63;98449.42;106592;1273;24295;-86